sensor_id;sensor_type;location;lat;lon;timestamp;pressure;altitude;pressure_sealevel;temperature;humidity
30935;BME280;51033;42.648;23.292;2023-02-12T00:00:30;94748.53;;;-0.71;35.83
30935;BME280;51033;42.648;23.292;2023-02-12T00:02:55;94729.53;;;-0.78;36.13
30935;BME280;51033;42.648;23.292;2023-02-12T00:05:21;94709.53;;;-1.03;35.66
30935;BME280;51033;42.648;23.292;2023-02-12T00:07:46;94707.75;;;-1.02;35.46
30935;BME280;51033;42.648;23.292;2023-02-12T00:10:11;94736.16;;;-0.94;36.32
30935;BME280;51033;42.648;23.292;2023-02-12T00:12:40;94745.34;;;-0.91;36.09
30935;BME280;51033;42.648;23.292;2023-02-12T00:15:06;94756.03;;;-0.93;36.18
30935;BME280;51033;42.648;23.292;2023-02-12T00:17:32;94731.13;;;-0.96;35.92
30935;BME280;51033;42.648;23.292;2023-02-12T00:19:57;94718.94;;;-1.02;35.81
30935;BME280;51033;42.648;23.292;2023-02-12T00:22:23;94714.97;;;-1.04;36.39
30935;BME280;51033;42.648;23.292;2023-02-12T00:24:48;94737.50;;;-0.73;35.47
30935;BME280;51033;42.648;23.292;2023-02-12T00:27:13;94740.25;;;-0.68;36.09
30935;BME280;51033;42.648;23.292;2023-02-12T00:29:39;94723.53;;;-0.67;35.76
30935;BME280;51033;42.648;23.292;2023-02-12T00:32:04;94746.06;;;-0.66;35.46
30935;BME280;51033;42.648;23.292;2023-02-12T00:34:31;94745.91;;;-0.71;35.92
30935;BME280;51033;42.648;23.292;2023-02-12T00:36:56;94727.56;;;-0.53;35.65
30935;BME280;51033;42.648;23.292;2023-02-12T00:39:21;94702.34;;;-0.59;35.49
30935;BME280;51033;42.648;23.292;2023-02-12T00:41:47;94722.56;;;-0.84;36.03
30935;BME280;51033;42.648;23.292;2023-02-12T00:44:12;94712.69;;;-0.82;35.97
30935;BME280;51033;42.648;23.292;2023-02-12T00:46:38;94697.81;;;-0.82;36.30
30935;BME280;51033;42.648;23.292;2023-02-12T00:49:03;94668.31;;;-1.01;36.38
30935;BME280;51033;42.648;23.292;2023-02-12T00:51:28;94679.03;;;-0.90;36.38
30935;BME280;51033;42.648;23.292;2023-02-12T00:53:54;94677.03;;;-1.07;36.55
30935;BME280;51033;42.648;23.292;2023-02-12T00:56:19;94686.47;;;-1.06;36.61
30935;BME280;51033;42.648;23.292;2023-02-12T00:58:44;94665.72;;;-1.01;36.12
30935;BME280;51033;42.648;23.292;2023-02-12T01:01:10;94670.28;;;-0.96;36.33
30935;BME280;51033;42.648;23.292;2023-02-12T01:03:36;94672.22;;;-0.91;36.05
30935;BME280;51033;42.648;23.292;2023-02-12T01:06:01;94658.06;;;-0.84;36.04
30935;BME280;51033;42.648;23.292;2023-02-12T01:08:29;94668.81;;;-0.62;35.98
30935;BME280;51033;42.648;23.292;2023-02-12T01:11:01;94666.03;;;-0.49;35.42
30935;BME280;51033;42.648;23.292;2023-02-12T01:13:28;94666.72;;;-0.54;35.34
30935;BME280;51033;42.648;23.292;2023-02-12T01:16:16;94673.25;;;-0.63;35.82
30935;BME280;51033;42.648;23.292;2023-02-12T01:18:42;94690.38;;;-0.67;36.14
30935;BME280;51033;42.648;23.292;2023-02-12T01:21:11;94703.50;;;-0.55;36.35
30935;BME280;51033;42.648;23.292;2023-02-12T01:23:38;94689.31;;;-0.77;36.75
30935;BME280;51033;42.648;23.292;2023-02-12T01:26:04;94696.28;;;-0.71;36.57
30935;BME280;51033;42.648;23.292;2023-02-12T01:28:29;94727.41;;;-0.70;36.82
30935;BME280;51033;42.648;23.292;2023-02-12T01:30:54;94697.06;;;-1.01;37.09
30935;BME280;51033;42.648;23.292;2023-02-12T01:33:20;94689.94;;;-0.93;37.04
30935;BME280;51033;42.648;23.292;2023-02-12T01:35:45;94709.94;;;-0.69;37.13
30935;BME280;51033;42.648;23.292;2023-02-12T01:38:10;94695.72;;;-0.91;37.13
30935;BME280;51033;42.648;23.292;2023-02-12T01:40:36;94667.91;;;-0.98;37.93
30935;BME280;51033;42.648;23.292;2023-02-12T01:43:02;94718.03;;;-0.59;36.98
30935;BME280;51033;42.648;23.292;2023-02-12T01:45:47;94704.25;;;-0.66;37.31
30935;BME280;51033;42.648;23.292;2023-02-12T01:48:14;94696.88;;;-0.69;37.35
30935;BME280;51033;42.648;23.292;2023-02-12T01:50:43;94700.84;;;-0.67;37.85
30935;BME280;51033;42.648;23.292;2023-02-12T01:53:09;94689.28;;;-0.59;37.55
30935;BME280;51033;42.648;23.292;2023-02-12T01:55:35;94663.06;;;-0.82;37.93
30935;BME280;51033;42.648;23.292;2023-02-12T01:58:01;94657.53;;;-1.04;38.21
30935;BME280;51033;42.648;23.292;2023-02-12T02:00:26;94627.47;;;-1.25;38.91
30935;BME280;51033;42.648;23.292;2023-02-12T02:02:57;94685.34;;;-0.80;38.65
30935;BME280;51033;42.648;23.292;2023-02-12T02:05:55;94687.75;;;-0.78;38.72
30935;BME280;51033;42.648;23.292;2023-02-12T02:08:22;94673.63;;;-0.89;39.08
30935;BME280;51033;42.648;23.292;2023-02-12T02:10:48;94663.31;;;-0.84;39.01
30935;BME280;51033;42.648;23.292;2023-02-12T02:13:13;94675.84;;;-0.63;38.76
30935;BME280;51033;42.648;23.292;2023-02-12T02:16:16;94663.19;;;-0.77;38.78
30935;BME280;51033;42.648;23.292;2023-02-12T02:19:09;94685.69;;;-0.76;39.20
30935;BME280;51033;42.648;23.292;2023-02-12T02:24:29;94690.97;;;-0.65;39.72
30935;BME280;51033;42.648;23.292;2023-02-12T02:27:14;94688.16;;;-0.52;39.76
30935;BME280;51033;42.648;23.292;2023-02-12T02:37:51;94643.41;;;-0.55;39.98
30935;BME280;51033;42.648;23.292;2023-02-12T02:40:22;94673.28;;;-0.51;40.64
30935;BME280;51033;42.648;23.292;2023-02-12T02:42:55;94666.16;;;-0.44;40.54
30935;BME280;51033;42.648;23.292;2023-02-12T02:45:37;94676.53;;;-0.67;40.96
30935;BME280;51033;42.648;23.292;2023-02-12T02:48:13;94677.81;;;-0.58;41.23
30935;BME280;51033;42.648;23.292;2023-02-12T02:50:45;94684.88;;;-0.47;41.45
30935;BME280;51033;42.648;23.292;2023-02-12T02:53:16;94674.94;;;-0.68;41.70
30935;BME280;51033;42.648;23.292;2023-02-12T02:55:50;94662.03;;;-0.63;41.52
30935;BME280;51033;42.648;23.292;2023-02-12T02:58:20;94679.59;;;-0.70;41.61
30935;BME280;51033;42.648;23.292;2023-02-12T03:00:58;94678.59;;;-0.58;41.49
30935;BME280;51033;42.648;23.292;2023-02-12T03:03:36;94673.28;;;-0.51;41.50
30935;BME280;51033;42.648;23.292;2023-02-12T03:06:14;94674.25;;;-0.34;41.03
30935;BME280;51033;42.648;23.292;2023-02-12T03:08:52;94684.16;;;-0.13;40.91
30935;BME280;51033;42.648;23.292;2023-02-12T03:11:27;94658.56;;;-0.34;41.35
30935;BME280;51033;42.648;23.292;2023-02-12T03:13:59;94688.84;;;-0.15;41.59
30935;BME280;51033;42.648;23.292;2023-02-12T03:16:31;94690.78;;;0.02;41.67
30935;BME280;51033;42.648;23.292;2023-02-12T03:19:04;94671.22;;;-0.19;41.61
30935;BME280;51033;42.648;23.292;2023-02-12T03:21:55;94673.41;;;-0.04;41.70
30935;BME280;51033;42.648;23.292;2023-02-12T03:24:47;94672.09;;;-0.14;41.59
30935;BME280;51033;42.648;23.292;2023-02-12T03:27:19;94687.00;;;-0.26;41.69
30935;BME280;51033;42.648;23.292;2023-02-12T03:29:47;94673.59;;;-0.18;41.88
30935;BME280;51033;42.648;23.292;2023-02-12T03:32:21;94675.09;;;-0.10;41.85
30935;BME280;51033;42.648;23.292;2023-02-12T03:37:36;94681.88;;;-0.09;42.17
30935;BME280;51033;42.648;23.292;2023-02-12T03:42:45;94685.78;;;0.00;41.38
30935;BME280;51033;42.648;23.292;2023-02-12T03:45:37;94671.97;;;-0.19;41.64
30935;BME280;51033;42.648;23.292;2023-02-12T03:48:35;94676.53;;;-0.26;41.82
30935;BME280;51033;42.648;23.292;2023-02-12T03:51:15;94688.00;;;-0.27;42.01
30935;BME280;51033;42.648;23.292;2023-02-12T03:53:42;94674.72;;;-0.25;41.80
30935;BME280;51033;42.648;23.292;2023-02-12T03:56:36;94674.72;;;-0.14;41.82
30935;BME280;51033;42.648;23.292;2023-02-12T03:58:58;94685.00;;;-0.00;41.31
30935;BME280;51033;42.648;23.292;2023-02-12T04:01:24;94664.38;;;-0.20;41.79
30935;BME280;51033;42.648;23.292;2023-02-12T04:03:50;94679.53;;;-0.11;42.29
30935;BME280;51033;42.648;23.292;2023-02-12T04:06:26;94678.28;;;0.15;41.37
30935;BME280;51033;42.648;23.292;2023-02-12T04:08:54;94671.56;;;0.08;41.38
30935;BME280;51033;42.648;23.292;2023-02-12T04:14:21;94670.22;;;0.28;40.21
30935;BME280;51033;42.648;23.292;2023-02-12T04:20:01;94677.94;;;0.35;40.56
30935;BME280;51033;42.648;23.292;2023-02-12T04:22:53;94690.69;;;0.43;39.94
30935;BME280;51033;42.648;23.292;2023-02-12T04:25:50;94689.44;;;0.57;40.20
30935;BME280;51033;42.648;23.292;2023-02-12T04:36:43;94697.28;;;0.57;40.54
30935;BME280;51033;42.648;23.292;2023-02-12T04:39:16;94652.44;;;0.42;40.09
30935;BME280;51033;42.648;23.292;2023-02-12T04:41:43;94700.91;;;0.56;39.88
30935;BME280;51033;42.648;23.292;2023-02-12T04:44:22;94678.16;;;0.45;39.78
30935;BME280;51033;42.648;23.292;2023-02-12T04:46:48;94674.28;;;0.36;39.54
30935;BME280;51033;42.648;23.292;2023-02-12T04:49:20;94714.13;;;0.61;39.56
30935;BME280;51033;42.648;23.292;2023-02-12T04:51:46;94710.13;;;0.35;39.76
30935;BME280;51033;42.648;23.292;2023-02-12T04:54:13;94710.03;;;0.19;39.98
30935;BME280;51033;42.648;23.292;2023-02-12T04:56:39;94711.50;;;0.26;40.22
30935;BME280;51033;42.648;23.292;2023-02-12T04:59:04;94706.25;;;0.26;39.98
30935;BME280;51033;42.648;23.292;2023-02-12T05:01:32;94699.56;;;0.42;39.90
30935;BME280;51033;42.648;23.292;2023-02-12T05:03:58;94720.03;;;0.57;39.48
30935;BME280;51033;42.648;23.292;2023-02-12T05:06:23;94707.41;;;0.42;39.45
30935;BME280;51033;42.648;23.292;2023-02-12T05:08:51;94712.19;;;0.22;39.77
30935;BME280;51033;42.648;23.292;2023-02-12T05:11:17;94725.38;;;0.15;40.05
30935;BME280;51033;42.648;23.292;2023-02-12T05:13:42;94707.72;;;0.11;40.04
30935;BME280;51033;42.648;23.292;2023-02-12T05:16:08;94729.13;;;0.08;39.93
30935;BME280;51033;42.648;23.292;2023-02-12T05:18:34;94717.25;;;-0.07;40.39
30935;BME280;51033;42.648;23.292;2023-02-12T05:21:02;94718.91;;;-0.24;40.99
30935;BME280;51033;42.648;23.292;2023-02-12T05:23:30;94743.38;;;-0.48;42.81
30935;BME280;51033;42.648;23.292;2023-02-12T05:26:00;94745.25;;;-0.37;43.89
30935;BME280;51033;42.648;23.292;2023-02-12T05:28:26;94743.53;;;-0.43;44.01
30935;BME280;51033;42.648;23.292;2023-02-12T05:30:52;94720.84;;;-0.61;44.65
30935;BME280;51033;42.648;23.292;2023-02-12T05:33:17;94725.84;;;-0.89;45.45
30935;BME280;51033;42.648;23.292;2023-02-12T05:35:42;94753.59;;;-0.76;45.98
30935;BME280;51033;42.648;23.292;2023-02-12T05:38:08;94756.66;;;-0.79;46.36
30935;BME280;51033;42.648;23.292;2023-02-12T05:40:33;94768.25;;;-0.57;46.25
30935;BME280;51033;42.648;23.292;2023-02-12T05:43:00;94765.06;;;-0.59;46.45
30935;BME280;51033;42.648;23.292;2023-02-12T05:45:26;94770.31;;;-0.47;46.15
30935;BME280;51033;42.648;23.292;2023-02-12T05:47:54;94767.56;;;-0.53;46.33
30935;BME280;51033;42.648;23.292;2023-02-12T05:50:19;94765.59;;;-0.39;46.22
30935;BME280;51033;42.648;23.292;2023-02-12T05:52:45;94758.81;;;-0.58;46.39
30935;BME280;51033;42.648;23.292;2023-02-12T05:55:10;94777.19;;;-0.65;47.31
30935;BME280;51033;42.648;23.292;2023-02-12T05:57:36;94781.78;;;-0.78;48.43
30935;BME280;51033;42.648;23.292;2023-02-12T06:00:02;94775.53;;;-0.96;49.87
30935;BME280;51033;42.648;23.292;2023-02-12T06:02:28;94781.31;;;-1.30;50.92
30935;BME280;51033;42.648;23.292;2023-02-12T06:04:53;94760.22;;;-1.71;52.17
30935;BME280;51033;42.648;23.292;2023-02-12T06:07:19;94782.41;;;-1.87;53.33
30935;BME280;51033;42.648;23.292;2023-02-12T06:09:44;94767.50;;;-1.80;53.38
30935;BME280;51033;42.648;23.292;2023-02-12T06:12:10;94754.25;;;-1.78;53.24
30935;BME280;51033;42.648;23.292;2023-02-12T06:14:35;94784.09;;;-1.50;53.18
30935;BME280;51033;42.648;23.292;2023-02-12T06:17:01;94782.81;;;-1.41;53.24
30935;BME280;51033;42.648;23.292;2023-02-12T06:19:26;94772.81;;;-1.44;53.80
30935;BME280;51033;42.648;23.292;2023-02-12T06:21:51;94788.53;;;-1.50;54.08
30935;BME280;51033;42.648;23.292;2023-02-12T06:24:17;94732.72;;;-1.92;54.32
30935;BME280;51033;42.648;23.292;2023-02-12T06:26:43;94783.88;;;-1.66;55.01
30935;BME280;51033;42.648;23.292;2023-02-12T06:29:08;94792.00;;;-1.56;55.53
30935;BME280;51033;42.648;23.292;2023-02-12T06:31:35;94774.28;;;-1.72;56.90
30935;BME280;51033;42.648;23.292;2023-02-12T06:34:06;94786.56;;;-1.55;57.76
30935;BME280;51033;42.648;23.292;2023-02-12T06:36:33;94784.84;;;-1.43;57.22
30935;BME280;51033;42.648;23.292;2023-02-12T06:39:00;94771.81;;;-1.67;57.72
30935;BME280;51033;42.648;23.292;2023-02-12T06:41:26;94771.66;;;-1.72;57.30
30935;BME280;51033;42.648;23.292;2023-02-12T06:43:52;94785.66;;;-1.67;57.80
30935;BME280;51033;42.648;23.292;2023-02-12T06:46:18;94804.09;;;-1.37;56.92
30935;BME280;51033;42.648;23.292;2023-02-12T06:48:44;94810.16;;;-1.43;57.14
30935;BME280;51033;42.648;23.292;2023-02-12T06:51:14;94792.47;;;-1.41;56.97
30935;BME280;51033;42.648;23.292;2023-02-12T06:53:41;94804.22;;;-1.32;56.55
30935;BME280;51033;42.648;23.292;2023-02-12T06:56:08;94772.50;;;-1.54;56.44
30935;BME280;51033;42.648;23.292;2023-02-12T06:58:42;94801.50;;;-1.19;56.25
30935;BME280;51033;42.648;23.292;2023-02-12T07:01:28;94784.16;;;-1.13;55.60
30935;BME280;51033;42.648;23.292;2023-02-12T07:03:56;94797.22;;;-1.13;55.36
30935;BME280;51033;42.648;23.292;2023-02-12T07:06:22;94799.34;;;-1.04;55.56
30935;BME280;51033;42.648;23.292;2023-02-12T07:08:48;94770.47;;;-1.09;55.10
30935;BME280;51033;42.648;23.292;2023-02-12T07:11:14;94795.25;;;-0.81;54.83
30935;BME280;51033;42.648;23.292;2023-02-12T07:13:40;94785.81;;;-0.82;54.65
30935;BME280;51033;42.648;23.292;2023-02-12T07:16:08;94798.97;;;-0.71;54.85
30935;BME280;51033;42.648;23.292;2023-02-12T07:18:36;94789.16;;;-0.75;54.72
30935;BME280;51033;42.648;23.292;2023-02-12T07:21:03;94792.69;;;-0.52;54.36
30935;BME280;51033;42.648;23.292;2023-02-12T07:23:29;94804.69;;;-0.44;54.02
30935;BME280;51033;42.648;23.292;2023-02-12T07:25:59;94772.78;;;-0.34;53.42
30935;BME280;51033;42.648;23.292;2023-02-12T07:28:25;94795.00;;;-0.14;53.62
30935;BME280;51033;42.648;23.292;2023-02-12T07:30:51;94778.50;;;-0.26;53.14
30935;BME280;51033;42.648;23.292;2023-02-12T07:33:17;94743.25;;;-0.23;52.78
30935;BME280;51033;42.648;23.292;2023-02-12T07:35:43;94775.19;;;0.09;52.44
30935;BME280;51033;42.648;23.292;2023-02-12T07:38:08;94778.47;;;0.16;52.42
30935;BME280;51033;42.648;23.292;2023-02-12T07:40:33;94772.34;;;0.22;52.11
30935;BME280;51033;42.648;23.292;2023-02-12T07:42:59;94796.03;;;0.15;52.27
30935;BME280;51033;42.648;23.292;2023-02-12T07:45:24;94812.69;;;0.03;53.02
30935;BME280;51033;42.648;23.292;2023-02-12T07:47:50;94802.97;;;-0.38;54.05
30935;BME280;51033;42.648;23.292;2023-02-12T07:50:16;94826.63;;;-0.15;53.91
30935;BME280;51033;42.648;23.292;2023-02-12T07:52:42;94810.06;;;-0.27;54.09
30935;BME280;51033;42.648;23.292;2023-02-12T07:55:07;94803.03;;;-0.27;53.90
30935;BME280;51033;42.648;23.292;2023-02-12T07:57:34;94822.69;;;0.06;53.70
30935;BME280;51033;42.648;23.292;2023-02-12T07:59:59;94805.97;;;0.07;53.44
30935;BME280;51033;42.648;23.292;2023-02-12T08:02:25;94809.53;;;0.12;53.31
30935;BME280;51033;42.648;23.292;2023-02-12T08:04:57;94807.25;;;0.04;53.53
30935;BME280;51033;42.648;23.292;2023-02-12T08:07:23;94809.09;;;0.15;53.47
30935;BME280;51033;42.648;23.292;2023-02-12T08:09:49;94808.94;;;-0.01;54.07
30935;BME280;51033;42.648;23.292;2023-02-12T08:12:15;94822.59;;;0.01;54.40
30935;BME280;51033;42.648;23.292;2023-02-12T08:14:40;94808.94;;;-0.01;54.39
30935;BME280;51033;42.648;23.292;2023-02-12T08:17:06;94799.47;;;-0.14;54.78
30935;BME280;51033;42.648;23.292;2023-02-12T08:19:32;94829.63;;;0.30;54.21
30935;BME280;51033;42.648;23.292;2023-02-12T08:21:58;94807.13;;;0.11;54.31
30935;BME280;51033;42.648;23.292;2023-02-12T08:24:24;94838.09;;;0.25;54.38
30935;BME280;51033;42.648;23.292;2023-02-12T08:26:49;94837.34;;;0.25;54.58
30935;BME280;51033;42.648;23.292;2023-02-12T08:29:18;94802.69;;;-0.00;54.65
30935;BME280;51033;42.648;23.292;2023-02-12T08:31:46;94841.34;;;0.39;54.28
30935;BME280;51033;42.648;23.292;2023-02-12T08:34:23;94819.56;;;0.27;54.13
30935;BME280;51033;42.648;23.292;2023-02-12T08:36:51;94829.50;;;0.36;53.83
30935;BME280;51033;42.648;23.292;2023-02-12T08:39:18;94849.88;;;0.46;54.05
30935;BME280;51033;42.648;23.292;2023-02-12T08:41:44;94862.53;;;0.49;54.15
30935;BME280;51033;42.648;23.292;2023-02-12T08:44:11;94849.91;;;0.58;53.81
30935;BME280;51033;42.648;23.292;2023-02-12T08:46:39;94840.44;;;0.45;53.79
30935;BME280;51033;42.648;23.292;2023-02-12T08:49:07;94862.06;;;0.52;53.85
30935;BME280;51033;42.648;23.292;2023-02-12T08:51:38;94878.00;;;0.51;54.05
30935;BME280;51033;42.648;23.292;2023-02-12T08:54:06;94874.69;;;0.55;54.11
30935;BME280;51033;42.648;23.292;2023-02-12T08:56:34;94874.81;;;0.60;54.00
30935;BME280;51033;42.648;23.292;2023-02-12T08:59:01;94844.09;;;0.44;53.91
30935;BME280;51033;42.648;23.292;2023-02-12T09:01:34;94875.75;;;0.54;53.66
30935;BME280;51033;42.648;23.292;2023-02-12T09:04:00;94878.00;;;0.39;54.18
30935;BME280;51033;42.648;23.292;2023-02-12T09:06:26;94861.09;;;0.35;54.56
30935;BME280;51033;42.648;23.292;2023-02-12T09:08:53;94889.19;;;0.58;54.24
30935;BME280;51033;42.648;23.292;2023-02-12T09:11:21;94853.09;;;0.48;53.67
30935;BME280;51033;42.648;23.292;2023-02-12T09:13:56;94860.16;;;0.18;54.70
30935;BME280;51033;42.648;23.292;2023-02-12T09:16:22;94897.53;;;0.36;54.73
30935;BME280;51033;42.648;23.292;2023-02-12T09:18:47;94904.50;;;0.43;54.59
30935;BME280;51033;42.648;23.292;2023-02-12T09:21:14;94898.06;;;0.27;54.79
30935;BME280;51033;42.648;23.292;2023-02-12T09:23:41;94915.31;;;0.46;54.71
30935;BME280;51033;42.648;23.292;2023-02-12T09:26:09;94900.38;;;0.35;55.25
30935;BME280;51033;42.648;23.292;2023-02-12T09:28:36;94904.03;;;0.34;55.22
30935;BME280;51033;42.648;23.292;2023-02-12T09:31:10;94898.19;;;0.32;55.83
30935;BME280;51033;42.648;23.292;2023-02-12T09:33:37;94885.38;;;0.12;55.35
30935;BME280;51033;42.648;23.292;2023-02-12T09:36:07;94899.13;;;0.08;56.16
30935;BME280;51033;42.648;23.292;2023-02-12T09:38:33;94892.53;;;0.05;56.15
30935;BME280;51033;42.648;23.292;2023-02-12T09:44:16;94906.72;;;-0.02;56.57
30935;BME280;51033;42.648;23.292;2023-02-12T09:46:59;94908.91;;;-0.18;56.99
30935;BME280;51033;42.648;23.292;2023-02-12T09:52:03;94888.88;;;-0.42;57.61
30935;BME280;51033;42.648;23.292;2023-02-12T09:54:36;94882.50;;;-0.46;57.88
30935;BME280;51033;42.648;23.292;2023-02-12T09:57:06;94908.63;;;-0.28;57.80
30935;BME280;51033;42.648;23.292;2023-02-12T09:59:45;94917.16;;;-0.02;57.53
30935;BME280;51033;42.648;23.292;2023-02-12T10:02:17;94899.84;;;-0.15;57.33
30935;BME280;51033;42.648;23.292;2023-02-12T10:04:44;94907.97;;;-0.23;57.62
30935;BME280;51033;42.648;23.292;2023-02-12T10:12:57;94912.97;;;-0.22;58.70
30935;BME280;51033;42.648;23.292;2023-02-12T10:26:25;94900.56;;;0.22;57.68
30935;BME280;51033;42.648;23.292;2023-02-12T10:28:53;94909.81;;;0.36;57.30
30935;BME280;51033;42.648;23.292;2023-02-12T10:31:37;94895.66;;;0.14;57.68
30935;BME280;51033;42.648;23.292;2023-02-12T10:34:27;94925.72;;;0.23;57.89
30935;BME280;51033;42.648;23.292;2023-02-12T10:37:01;94907.97;;;0.25;57.51
30935;BME280;51033;42.648;23.292;2023-02-12T10:39:34;94912.31;;;0.31;57.15
30935;BME280;51033;42.648;23.292;2023-02-12T10:42:34;94913.03;;;0.38;57.49
30935;BME280;51033;42.648;23.292;2023-02-12T10:45:03;94899.59;;;0.46;56.90
30935;BME280;51033;42.648;23.292;2023-02-12T10:47:28;94916.28;;;0.75;56.73
30935;BME280;51033;42.648;23.292;2023-02-12T10:49:59;94920.75;;;0.86;56.00
30935;BME280;51033;42.648;23.292;2023-02-12T10:54:50;94912.69;;;0.88;55.70
30935;BME280;51033;42.648;23.292;2023-02-12T10:57:30;94902.75;;;0.90;55.72
30935;BME280;51033;42.648;23.292;2023-02-12T11:00:33;94904.72;;;1.06;55.82
30935;BME280;51033;42.648;23.292;2023-02-12T11:03:05;94918.19;;;1.21;55.12
30935;BME280;51033;42.648;23.292;2023-02-12T11:05:34;94924.31;;;1.38;54.75
30935;BME280;51033;42.648;23.292;2023-02-12T11:08:00;94901.56;;;1.27;54.29
30935;BME280;51033;42.648;23.292;2023-02-12T11:10:31;94915.22;;;1.17;54.86
30935;BME280;51033;42.648;23.292;2023-02-12T11:12:58;94926.16;;;1.26;54.78
30935;BME280;51033;42.648;23.292;2023-02-12T11:15:26;94896.75;;;1.36;54.58
30935;BME280;51033;42.648;23.292;2023-02-12T11:17:59;94925.91;;;1.39;54.64
30935;BME280;51033;42.648;23.292;2023-02-12T11:20:33;94916.03;;;1.41;54.58
30935;BME280;51033;42.648;23.292;2023-02-12T11:23:04;94904.69;;;1.52;53.91
30935;BME280;51033;42.648;23.292;2023-02-12T11:25:35;94888.53;;;1.55;53.88
30935;BME280;51033;42.648;23.292;2023-02-12T11:28:05;94908.47;;;1.56;53.98
30935;BME280;51033;42.648;23.292;2023-02-12T11:30:34;94914.50;;;1.68;54.21
30935;BME280;51033;42.648;23.292;2023-02-12T11:33:35;94906.06;;;1.66;54.21
30935;BME280;51033;42.648;23.292;2023-02-12T11:36:24;94915.19;;;1.76;54.16
30935;BME280;51033;42.648;23.292;2023-02-12T11:38:56;94911.06;;;1.80;53.65
30935;BME280;51033;42.648;23.292;2023-02-12T11:41:37;94919.84;;;1.85;53.59
30935;BME280;51033;42.648;23.292;2023-02-12T11:44:12;94914.72;;;1.79;53.63
30935;BME280;51033;42.648;23.292;2023-02-12T11:46:47;94909.69;;;1.89;53.48
30935;BME280;51033;42.648;23.292;2023-02-12T11:49:22;94919.47;;;2.05;53.56
30935;BME280;51033;42.648;23.292;2023-02-12T11:51:49;94909.19;;;2.15;53.12
30935;BME280;51033;42.648;23.292;2023-02-12T11:54:24;94885.72;;;1.97;52.96
30935;BME280;51033;42.648;23.292;2023-02-12T11:56:51;94897.88;;;2.15;53.09
30935;BME280;51033;42.648;23.292;2023-02-12T12:02:08;94917.88;;;2.32;52.47
30935;BME280;51033;42.648;23.292;2023-02-12T12:04:37;94898.47;;;2.05;52.83
30935;BME280;51033;42.648;23.292;2023-02-12T12:07:12;94910.53;;;2.06;53.51
30935;BME280;51033;42.648;23.292;2023-02-12T12:09:47;94897.44;;;2.06;52.57
30935;BME280;51033;42.648;23.292;2023-02-12T12:15:03;94911.19;;;2.25;51.94
30935;BME280;51033;42.648;23.292;2023-02-12T12:17:58;94929.13;;;2.16;52.26
30935;BME280;51033;42.648;23.292;2023-02-12T12:20:53;94907.56;;;2.14;52.15
30935;BME280;51033;42.648;23.292;2023-02-12T12:23:42;94921.09;;;2.34;52.29
30935;BME280;51033;42.648;23.292;2023-02-12T12:26:30;94910.91;;;2.38;51.57
30935;BME280;51033;42.648;23.292;2023-02-12T12:29:10;94919.91;;;2.42;51.36
30935;BME280;51033;42.648;23.292;2023-02-12T12:31:42;94914.97;;;2.45;51.10
30935;BME280;51033;42.648;23.292;2023-02-12T12:34:14;94920.59;;;2.66;51.18
30935;BME280;51033;42.648;23.292;2023-02-12T12:46:03;94938.75;;;2.67;50.83
30935;BME280;51033;42.648;23.292;2023-02-12T12:57:06;94949.66;;;2.76;50.43
30935;BME280;51033;42.648;23.292;2023-02-12T12:59:54;94948.75;;;2.53;50.90
30935;BME280;51033;42.648;23.292;2023-02-12T13:03:15;94957.53;;;2.59;50.72
30935;BME280;51033;42.648;23.292;2023-02-12T13:11:42;94948.97;;;2.97;50.00
30935;BME280;51033;42.648;23.292;2023-02-12T13:14:17;94959.31;;;2.87;50.24
30935;BME280;51033;42.648;23.292;2023-02-12T13:16:56;94946.44;;;2.57;50.75
30935;BME280;51033;42.648;23.292;2023-02-12T13:22:23;94970.06;;;2.85;50.39
30935;BME280;51033;42.648;23.292;2023-02-12T13:25:00;94948.69;;;2.65;50.72
30935;BME280;51033;42.648;23.292;2023-02-12T13:27:34;94973.16;;;2.82;50.50
30935;BME280;51033;42.648;23.292;2023-02-12T13:32:54;94974.28;;;2.86;50.47
30935;BME280;51033;42.648;23.292;2023-02-12T13:35:24;94973.13;;;2.66;51.24
30935;BME280;51033;42.648;23.292;2023-02-12T13:37:54;94966.84;;;2.67;51.29
30935;BME280;51033;42.648;23.292;2023-02-12T13:40:20;94967.09;;;2.82;50.86
30935;BME280;51033;42.648;23.292;2023-02-12T13:42:57;94963.47;;;2.83;51.08
30935;BME280;51033;42.648;23.292;2023-02-12T13:45:49;94971.06;;;2.84;50.88
30935;BME280;51033;42.648;23.292;2023-02-12T13:56:41;94944.13;;;2.61;50.90
30935;BME280;51033;42.648;23.292;2023-02-12T13:59:38;94982.47;;;2.90;50.64
30935;BME280;51033;42.648;23.292;2023-02-12T14:02:27;94986.53;;;2.81;50.66
30935;BME280;51033;42.648;23.292;2023-02-12T14:05:15;94994.00;;;2.72;50.89
30935;BME280;51033;42.648;23.292;2023-02-12T14:07:50;94985.53;;;2.70;51.09
30935;BME280;51033;42.648;23.292;2023-02-12T14:10:28;94975.53;;;2.67;51.24
30935;BME280;51033;42.648;23.292;2023-02-12T14:13:07;94994.09;;;2.94;50.75
30935;BME280;51033;42.648;23.292;2023-02-12T14:15:37;94985.03;;;2.85;50.69
30935;BME280;51033;42.648;23.292;2023-02-12T14:23:40;95008.94;;;2.83;51.26
30935;BME280;51033;42.648;23.292;2023-02-12T14:26:10;94987.25;;;2.76;50.79
30935;BME280;51033;42.648;23.292;2023-02-12T14:28:57;95006.44;;;2.77;50.87
30935;BME280;51033;42.648;23.292;2023-02-12T14:39:25;95033.34;;;3.12;50.09
30935;BME280;51033;42.648;23.292;2023-02-12T14:47:14;95035.03;;;2.90;50.43
30935;BME280;51033;42.648;23.292;2023-02-12T14:49:46;95033.13;;;2.85;50.44
30935;BME280;51033;42.648;23.292;2023-02-12T14:54:53;95045.13;;;2.81;50.85
30935;BME280;51033;42.648;23.292;2023-02-12T14:59:46;95013.00;;;2.91;50.28
30935;BME280;51033;42.648;23.292;2023-02-12T15:02:38;95059.34;;;2.97;50.35
30935;BME280;51033;42.648;23.292;2023-02-12T15:05:10;95063.69;;;3.03;50.70
30935;BME280;51033;42.648;23.292;2023-02-12T15:08:06;95067.66;;;3.06;50.42
30935;BME280;51033;42.648;23.292;2023-02-12T15:10:40;95067.78;;;2.99;50.49
30935;BME280;51033;42.648;23.292;2023-02-12T15:13:23;95074.50;;;3.07;50.08
30935;BME280;51033;42.648;23.292;2023-02-12T15:15:51;95083.28;;;3.12;50.18
30935;BME280;51033;42.648;23.292;2023-02-12T15:18:27;95052.63;;;2.89;49.81